Furniss, Pennsylvania
Current Conditions -  °F | °C
As of 8:55 AM on Saturday 25 Oct 2014 (Local Time) from KMQS Reporting Station
Clear Clear  
Wind Chill: 50°   Ceiling: Unl
Heat Index: 50°   Visibility: 10mi
Dew Point: 41°   Wind: 6mph
Humidity: 71%   Direction: 280°W
Pressure: 29.92"   Gusts: NA
Location:  39.7675°N, 76.1818°W
Report Text: KMQS 251255Z AUTO 28005KT 10SM CLR 10/05 A2992 RMK AO2
Loading
Personal Weather Stations






























Interactive Weather Map
Tropical Storm Tracking
New forecast layout! Learn more

10-Day Weather Forecast

Advertisements
Track Severe Weather on mobile